Capitol Logistics 979


VRMM
Malé International Airport
Male, MV
OKBK
Kuwait International Airport
Kuwait City, KW

Activity Log

Date Flight Route Aircraft Duration
03/31/2020 CPX979 L4C LELEM L894 KITAL P570 EMURU N563 ALPOB UL768 OBMON UL934 TOKMA UL602 ITNAS DEBTI DEBS2D B763 5h 05m
12/23/2019 CPX979 L4C LELEM L894 KITAL P570 EMURU N563 ALPOB UL768 OBMON UL934 TOKMA UL602 ITNAS DEBTI DEBT2C B763 5h 23m
11/18/2019 CPX979 Not Available B763 5h 13m

Route Details

Aircraft Information
Primary: Boeing 767-300BDSF
Backup: Not Available
Route Data
Distance: 1638nm
Sched. Duration: 3h 29m
Avg. Duration: 5h 14m (+184m)
Times Flown: 3
Recm'd Route: Not Available
Planned Altitude: 34,000ft
Origin Wx: VRMM 060800Z 24010KT 9999 SCT017 FEW018CB BKN110 29/26 Q1010 CB N E SE S TEMPO 7000 -SHRA
Dest. Wx: OKBK 060800Z 36018KT 7000 -BLDU SKC 45/06 Q1005 NOSIG
Notes:

Financial History
Total Freight: 110,607lbs
Average Load: 36,869lbs/flt
Fuel Used: 148,592lbs
Avg. Fuel Used: 49,531lbs/flt
Fuel Expense: $178,310
Avg. Fuel Expense: $59,437
Avg. Fuel Cost: $1.20/lbs
Total Gross Income: $1,086,161
Pilot Pay: $567
Total Expenses: $117,461
Total Revenue: $787,135
Average Revenue: $362,053.58